createdAt,value
2023-05-19T00:00:40.193Z,80.30
2023-05-19T00:05:46.491Z,80.59
2023-05-19T00:10:48.870Z,80.60
2023-05-19T00:15:51.398Z,80.67
2023-05-19T00:20:53.480Z,80.78
2023-05-19T00:25:55.320Z,81.05
2023-05-19T00:30:57.394Z,81.25
2023-05-19T00:35:59.239Z,80.33
2023-05-19T00:41:02.658Z,81.35
2023-05-19T00:46:04.817Z,80.87
2023-05-19T00:51:07.403Z,81.46
2023-05-19T00:56:09.457Z,81.05
2023-05-19T01:01:12.566Z,81.29
2023-05-19T01:06:15.331Z,81.29
2023-05-19T01:11:17.611Z,80.58
2023-05-19T01:16:27.463Z,80.96
2023-05-19T01:21:55.802Z,80.61
2023-05-19T01:27:38.924Z,80.63
2023-05-19T01:32:42.439Z,81.17
2023-05-19T01:37:45.682Z,80.52
2023-05-19T01:42:48.195Z,80.66
2023-05-19T01:47:54.175Z,80.63
2023-05-19T01:52:56.760Z,81.02
2023-05-19T01:58:20.123Z,81.46
2023-05-19T02:03:28.044Z,80.91
2023-05-19T02:08:44.669Z,81.75
2023-05-19T02:13:51.582Z,81.08
2023-05-19T02:18:54.469Z,81.30
2023-05-19T02:23:56.571Z,81.03
2023-05-19T02:28:58.470Z,81.75
2023-05-19T02:34:00.549Z,81.18
2023-05-19T02:39:03.265Z,81.19
2023-05-19T02:44:05.951Z,81.00
2023-05-19T02:49:07.976Z,80.70
2023-05-19T02:54:10.023Z,80.86
2023-05-19T02:59:12.026Z,80.96
2023-05-19T03:04:14.321Z,81.07
2023-05-19T03:09:16.559Z,80.94
2023-05-19T03:14:18.930Z,80.51
2023-05-19T03:19:21.212Z,81.11
2023-05-19T03:24:23.464Z,81.14
2023-05-19T03:29:25.339Z,81.00
2023-05-19T03:34:27.475Z,81.11
2023-05-19T03:39:29.559Z,81.65
2023-05-19T03:44:31.590Z,80.45
2023-05-19T03:49:33.643Z,81.70
2023-05-19T03:54:36.367Z,80.73
2023-05-19T03:59:38.643Z,80.70
2023-05-19T04:04:40.704Z,81.03
2023-05-19T04:09:43.205Z,80.66
2023-05-19T04:14:45.275Z,80.07
2023-05-19T04:19:47.174Z,79.03
2023-05-19T04:24:50.711Z,79.81
2023-05-19T04:29:53.117Z,80.64
2023-05-19T04:34:55.297Z,79.83
2023-05-19T04:39:57.480Z,80.69
2023-05-19T04:44:59.646Z,80.62
2023-05-19T04:50:01.745Z,80.00
2023-05-19T04:55:04.367Z,80.59
2023-05-19T05:00:09.367Z,80.10
2023-05-19T05:05:11.413Z,80.91
2023-05-19T05:10:13.377Z,80.46
2023-05-19T05:15:16.216Z,80.03
2023-05-19T05:20:19.922Z,79.31
2023-05-19T05:25:22.351Z,80.17
2023-05-19T05:30:24.404Z,80.29
2023-05-19T05:35:26.405Z,81.16
2023-05-19T05:40:28.402Z,79.49
2023-05-19T05:45:30.811Z,78.69
2023-05-19T05:50:33.606Z,80.30
2023-05-19T05:55:36.123Z,79.94
2023-05-19T06:00:38.985Z,80.14
2023-05-19T06:05:47.723Z,79.42
2023-05-19T06:10:50.935Z,79.48
2023-05-19T06:15:53.291Z,79.32
2023-05-19T06:20:55.812Z,77.90
2023-05-19T06:25:58.065Z,78.13
2023-05-19T06:31:00.512Z,77.83
2023-05-19T06:36:02.760Z,77.89
2023-05-19T06:41:05.722Z,77.83
2023-05-19T06:46:08.417Z,77.64
2023-05-19T06:51:15.244Z,77.14
2023-05-19T06:56:19.146Z,77.70
2023-05-19T07:01:21.642Z,77.01
2023-05-19T07:06:24.145Z,76.46
2023-05-19T07:11:27.199Z,77.49
2023-05-19T07:16:38.674Z,76.86
2023-05-19T07:21:42.743Z,76.74
2023-05-19T07:26:44.977Z,77.12
2023-05-19T07:31:47.108Z,76.42
2023-05-19T07:36:49.297Z,75.57
2023-05-19T07:41:54.663Z,75.93
2023-05-19T07:46:56.705Z,75.01
2023-05-19T07:51:58.839Z,74.59
2023-05-19T07:57:01.300Z,74.64
2023-05-19T08:02:03.735Z,74.86
2023-05-19T08:07:05.911Z,75.17
2023-05-19T08:12:08.278Z,74.55
2023-05-19T08:17:10.561Z,73.92
2023-05-19T08:22:12.798Z,73.88
2023-05-19T08:27:14.818Z,73.71
2023-05-19T08:32:17.793Z,72.83
2023-05-19T08:37:19.842Z,71.60
2023-05-19T08:42:21.919Z,71.76
2023-05-19T08:47:24.207Z,72.45
2023-05-19T08:52:37.015Z,72.15
2023-05-19T08:57:39.885Z,71.17
2023-05-19T09:02:50.628Z,70.68
2023-05-19T09:08:05.255Z,70.11
2023-05-19T09:13:07.875Z,71.28
2023-05-19T09:18:13.305Z,70.37
2023-05-19T09:23:16.955Z,70.76
2023-05-19T09:28:25.995Z,70.74
2023-05-19T09:33:28.893Z,70.65
2023-05-19T09:38:31.058Z,71.23
2023-05-19T09:43:34.613Z,71.62
2023-05-19T09:48:37.727Z,71.27
2023-05-19T09:53:40.094Z,70.68
2023-05-19T09:58:43.004Z,70.30
2023-05-19T10:03:45.561Z,71.47
2023-05-19T10:08:48.448Z,71.10
2023-05-19T10:13:51.867Z,71.37
2023-05-19T10:18:57.470Z,71.29
2023-05-19T10:23:59.657Z,70.58
2023-05-19T10:29:03.711Z,70.42
2023-05-19T10:34:50.651Z,70.44
2023-05-19T10:39:53.650Z,70.90
2023-05-19T10:45:10.501Z,70.87
2023-05-19T10:50:12.811Z,70.98
2023-05-19T10:55:18.339Z,70.78
2023-05-19T11:00:32.285Z,70.76
2023-05-19T11:05:37.424Z,70.46
2023-05-19T11:10:39.967Z,70.83
2023-05-19T11:15:43.417Z,69.83
2023-05-19T11:20:58.664Z,70.46
2023-05-19T11:26:03.055Z,69.89
2023-05-19T11:31:08.395Z,70.40
2023-05-19T11:36:11.417Z,70.40
2023-05-19T11:41:18.231Z,69.94
2023-05-19T11:46:21.387Z,70.32
2023-05-19T11:51:23.761Z,69.81
2023-05-19T11:56:26.773Z,70.48
2023-05-19T12:01:28.892Z,70.44
2023-05-19T12:06:31.618Z,70.97
2023-05-19T12:11:35.312Z,70.29
2023-05-19T12:16:37.467Z,70.34
2023-05-19T12:21:39.909Z,70.22
2023-05-19T12:26:42.116Z,69.99
2023-05-19T12:31:47.168Z,70.26
2023-05-19T12:36:50.114Z,70.50
2023-05-19T12:41:52.349Z,70.74
2023-05-19T12:46:54.682Z,71.11
2023-05-19T12:51:56.935Z,71.37
2023-05-19T12:57:00.494Z,71.55
2023-05-19T13:02:02.857Z,71.63
2023-05-19T13:07:06.112Z,71.92
2023-05-19T13:12:08.458Z,72.28
2023-05-19T13:17:10.595Z,71.40
2023-05-19T13:22:12.828Z,71.46
2023-05-19T13:27:16.115Z,71.00
2023-05-19T13:32:18.383Z,71.34
2023-05-19T13:37:20.997Z,71.44
2023-05-19T13:42:23.607Z,71.91
2023-05-19T13:47:26.666Z,72.10
2023-05-19T13:52:30.486Z,72.34
2023-05-19T13:57:33.432Z,71.80
2023-05-19T14:02:36.581Z,71.62
2023-05-19T14:07:39.173Z,72.19
2023-05-19T14:13:04.754Z,71.80
2023-05-19T14:18:05.044Z,71.64
2023-05-19T14:23:08.945Z,71.41
2023-05-19T14:28:11.582Z,71.71
2023-05-19T14:33:16.167Z,71.63
2023-05-19T14:38:23.075Z,72.45
2023-05-19T14:43:25.519Z,71.50
2023-05-19T14:48:32.055Z,72.09
2023-05-19T14:53:34.219Z,72.75
2023-05-19T14:58:37.416Z,72.33
2023-05-19T15:03:39.738Z,71.64
2023-05-19T15:08:41.994Z,71.99
2023-05-19T15:13:44.411Z,72.34
2023-05-19T15:18:46.799Z,72.43
2023-05-19T15:23:48.935Z,73.05
2023-05-19T15:28:53.203Z,72.57
2023-05-19T15:33:55.450Z,72.13
2023-05-19T15:38:57.649Z,73.10
2023-05-19T15:44:02.889Z,73.54
2023-05-19T15:49:07.334Z,74.31
2023-05-19T15:54:11.175Z,73.59
2023-05-19T15:59:36.649Z,73.62
2023-05-19T16:04:45.782Z,73.59
2023-05-19T16:09:48.412Z,74.09
2023-05-19T16:14:51.314Z,73.65
2023-05-19T16:19:53.520Z,73.21
2023-05-19T16:24:55.840Z,73.66
2023-05-19T16:29:58.054Z,74.17
2023-05-19T16:35:00.368Z,73.86
2023-05-19T16:40:02.549Z,73.76
2023-05-19T16:45:05.872Z,74.65
2023-05-19T16:50:08.860Z,74.95
2023-05-19T16:55:13.355Z,75.30
2023-05-19T17:00:15.975Z,75.63
2023-05-19T17:05:18.220Z,76.34
2023-05-19T17:10:21.056Z,76.69
2023-05-19T17:15:23.447Z,76.88
2023-05-19T17:20:25.673Z,76.87
2023-05-19T17:25:27.878Z,77.09
2023-05-19T17:30:30.138Z,77.12
2023-05-19T17:35:34.279Z,77.50
2023-05-19T17:40:38.593Z,77.32
2023-05-19T17:45:42.052Z,77.39
2023-05-19T17:50:48.321Z,78.16
2023-05-19T17:56:01.971Z,78.52
2023-05-19T18:01:04.900Z,79.05
2023-05-19T18:06:07.936Z,79.14
2023-05-19T18:11:13.813Z,79.50
2023-05-19T18:16:16.281Z,79.09
2023-05-19T18:21:20.899Z,79.02
2023-05-19T18:26:23.509Z,79.38
2023-05-19T18:31:26.347Z,79.00
2023-05-19T18:36:41.426Z,79.29
2023-05-19T18:41:44.913Z,79.42
2023-05-19T18:46:47.231Z,79.97
2023-05-19T18:51:50.397Z,79.71
2023-05-19T18:56:53.195Z,79.13
2023-05-19T19:01:56.163Z,79.04
2023-05-19T19:06:58.601Z,79.25
2023-05-19T19:12:01.200Z,79.46
2023-05-19T19:17:03.420Z,79.92
2023-05-19T19:22:05.672Z,79.66
2023-05-19T19:27:07.775Z,79.89
2023-05-19T19:32:17.401Z,79.52
2023-05-19T19:37:23.059Z,80.22
2023-05-19T19:42:25.875Z,79.96
2023-05-19T19:47:27.856Z,80.08
2023-05-19T19:52:30.303Z,80.43
2023-05-19T19:57:34.679Z,80.68
2023-05-19T20:02:45.529Z,80.11
2023-05-19T20:07:57.855Z,80.62
2023-05-19T20:13:00.043Z,80.55
2023-05-19T20:18:03.701Z,80.94
2023-05-19T20:23:06.375Z,80.73
2023-05-19T20:28:08.627Z,81.07
2023-05-19T20:33:12.407Z,80.97
2023-05-19T20:38:15.008Z,81.30
2023-05-19T20:43:17.026Z,81.41
2023-05-19T20:48:19.143Z,81.62
2023-05-19T20:53:22.134Z,81.49
2023-05-19T20:58:26.943Z,81.59
2023-05-19T21:03:30.656Z,81.82
2023-05-19T21:08:33.061Z,82.70
2023-05-19T21:13:39.386Z,82.34
2023-05-19T21:18:42.136Z,83.00
2023-05-19T21:23:44.053Z,82.23
2023-05-19T21:28:45.828Z,82.22
2023-05-19T21:33:47.859Z,83.28
2023-05-19T21:38:49.778Z,82.64
2023-05-19T21:43:51.676Z,82.32
2023-05-19T21:48:53.541Z,82.40
2023-05-19T21:53:55.883Z,83.05
2023-05-19T21:58:57.870Z,83.01
2023-05-19T22:03:59.686Z,82.81
2023-05-19T22:09:02.776Z,83.26
2023-05-19T22:14:04.847Z,83.34
2023-05-19T22:19:06.937Z,82.69
2023-05-19T22:24:09.046Z,82.47
2023-05-19T22:29:15.292Z,83.53
2023-05-19T22:34:17.596Z,82.90
2023-05-19T22:39:19.580Z,83.01
2023-05-19T22:44:21.760Z,83.38
2023-05-19T22:49:23.883Z,83.62
2023-05-19T22:54:25.805Z,83.78
2023-05-19T22:59:27.993Z,83.79
2023-05-19T23:04:29.994Z,83.12
2023-05-19T23:09:32.024Z,83.44
2023-05-19T23:14:33.847Z,83.60
2023-05-19T23:19:37.163Z,83.09
2023-05-19T23:24:39.056Z,83.31
2023-05-19T23:29:40.908Z,83.44
2023-05-19T23:34:42.883Z,83.16
2023-05-19T23:39:54.755Z,83.15
2023-05-19T23:44:56.615Z,83.53
2023-05-19T23:49:58.368Z,83.87
2023-05-19T23:55:00.220Z,83.98
